PWSweather.com
Personal Weather Stations
Station Observations
KMICHEBO10
Cordwood Point, Lake Huron, Cheboygan, MI 49721

Cordwood Point, Lake HuronCheboygan, MI 49721

Lat: 45.663372, Lon: -84.3327789

Elevation: 598

Station Type: Davis Vantage Pro2 Wireless

https://www.lakehuronweather.org

Latest ConditionsUpdated 12:00:02 PM EST Sunday, Jan 26, 2020
Currently Today's Max Today's Min Today's Average
Temperature 31.8°F-0.1°C 33.7°F0.9°C 31.6°F-0.2°C 32.9°F0.5°C
Dew Point 30.5°F-0.8°C 32.9°F0.5°C 30.5°F-0.8°C 32.0°F0.0°C
Winds 1.1 mph WNW1.8 kmh WNW 2.3 mph -3.7 kmh - - 0.8 mph 1.3 kmh
Wind Gusts 2.3 mph3.7 kmh 8.1 mph13.0 kmh - -
Humidity 95% 97% 95% 97%
Pressure 29.66 in1004.4 mb 29.69 in1005.4 mb 29.65 in1004.1 mb -
Precipitation - 0.02 in0.5 mm - -
Hour Temp Dew Point Humidity Winds Wind Gusts Pressure Precip Precip Rate Daily Precip Total
12:00 PM 31.8°F-0.1°C 30.5°F-0.8°C 95% 1.1 mph WNW1.8 kmh WNW 2.3 mph3.7 kmh 29.66 in1004.4 mb - 0.01 in0.3 mm 0.02 in0.5 mm
11:50 AM 31.8°F-0.1°C 30.5°F-0.8°C 95% 1.1 mph WNW1.8 kmh WNW 3.5 mph5.6 kmh 29.67 in1004.7 mb - 0.00 in0.0 mm 0.01 in0.3 mm
11:40 AM 31.9°F-0.1°C 30.9°F-0.6°C 96% 1.1 mph NW1.8 kmh NW 5.8 mph9.3 kmh 29.67 in1004.7 mb - 0.00 in0.0 mm 0.01 in0.3 mm
11:30 AM 31.7°F-0.2°C 30.7°F-0.7°C 96% 1.1 mph W1.8 kmh W 4.6 mph7.4 kmh 29.67 in1004.7 mb - 0.00 in0.0 mm 0.01 in0.3 mm
11:20 AM 31.7°F-0.2°C 30.7°F-0.7°C 96% 1.1 mph WSW1.8 kmh WSW 3.5 mph5.6 kmh 29.67 in1004.7 mb - 0.00 in0.0 mm 0.01 in0.3 mm
11:10 AM 31.7°F-0.2°C 30.7°F-0.7°C 96% 1.1 mph W1.8 kmh W 3.5 mph5.6 kmh 29.67 in1004.7 mb - 0.00 in0.0 mm 0.01 in0.3 mm
11:00 AM 31.7°F-0.2°C 30.7°F-0.7°C 96% 1.1 mph W1.8 kmh W 2.3 mph3.7 kmh 29.67 in1004.7 mb - 0.00 in0.0 mm 0.01 in0.3 mm
10:50 AM 31.6°F-0.2°C 30.6°F-0.8°C 96% 1.1 mph W1.8 kmh W 2.3 mph3.7 kmh 29.67 in1004.7 mb - 0.00 in0.0 mm 0.01 in0.3 mm
10:40 AM 31.7°F-0.2°C 30.7°F-0.7°C 96% 1.1 mph W1.8 kmh W 3.5 mph5.6 kmh 29.66 in1004.4 mb - 0.00 in0.0 mm 0.01 in0.3 mm
10:30 AM 31.7°F-0.2°C 30.7°F-0.7°C 96% 1.1 mph SSW1.8 kmh SSW 6.9 mph11.1 kmh 29.66 in1004.4 mb - 0.00 in0.0 mm 0.01 in0.3 mm
10:20 AM 31.8°F-0.1°C 30.7°F-0.7°C 96% 1.1 mph WNW1.8 kmh WNW 5.8 mph9.3 kmh 29.66 in1004.4 mb - 0.00 in0.0 mm 0.01 in0.3 mm
10:10 AM 31.8°F-0.1°C 30.8°F-0.7°C 96% 1.1 mph W1.8 kmh W 3.5 mph5.6 kmh 29.66 in1004.4 mb - 0.00 in0.0 mm 0.01 in0.3 mm
10:00 AM 31.9°F-0.1°C 30.9°F-0.6°C 96% 1.1 mph W1.8 kmh W 2.3 mph3.7 kmh 29.66 in1004.4 mb - 0.00 in0.0 mm 0.01 in0.3 mm
09:50 AM 32.0°F0.0°C 31.0°F-0.6°C 96% Calm Calm 1.1 mph1.8 kmh 29.66 in1004.4 mb - 0.00 in0.0 mm 0.01 in0.3 mm
09:40 AM 32.1°F0.1°C 31.1°F-0.5°C 96% 1.1 mph W1.8 kmh W 1.1 mph1.8 kmh 29.65 in1004.1 mb - 0.00 in0.0 mm 0.01 in0.3 mm
09:30 AM 32.2°F0.1°C 31.2°F-0.4°C 96% 1.1 mph SSW1.8 kmh SSW 2.3 mph3.7 kmh 29.65 in1004.1 mb - 0.00 in0.0 mm 0.01 in0.3 mm
09:20 AM 32.3°F0.2°C 31.3°F-0.4°C 96% 1.1 mph SW1.8 kmh SW 2.3 mph3.7 kmh 29.65 in1004.1 mb - 0.00 in0.0 mm 0.01 in0.3 mm
09:10 AM 32.3°F0.2°C 31.3°F-0.4°C 96% Calm Calm 4.6 mph7.4 kmh 29.65 in1004.1 mb - 0.00 in0.0 mm 0.01 in0.3 mm
09:00 AM 32.3°F0.2°C 31.3°F-0.4°C 96% Calm Calm 1.1 mph1.8 kmh 29.65 in1004.1 mb - 0.00 in0.0 mm 0.01 in0.3 mm
08:50 AM 32.4°F0.2°C 31.4°F-0.3°C 96% Calm Calm 2.3 mph3.7 kmh 29.65 in1004.1 mb - 0.00 in0.0 mm 0.01 in0.3 mm
08:40 AM 32.5°F0.3°C 31.5°F-0.3°C 96% 1.1 mph S1.8 kmh S 4.6 mph7.4 kmh 29.65 in1004.1 mb - 0.00 in0.0 mm 0.01 in0.3 mm
08:30 AM 32.5°F0.3°C 31.5°F-0.3°C 96% 2.3 mph WSW3.7 kmh WSW 8.1 mph13.0 kmh 29.65 in1004.1 mb - 0.00 in0.0 mm 0.01 in0.3 mm
08:20 AM 32.6°F0.3°C 31.6°F-0.2°C 96% 1.1 mph SW1.8 kmh SW 3.5 mph5.6 kmh 29.66 in1004.4 mb - 0.00 in0.0 mm 0.01 in0.3 mm
08:10 AM 32.6°F0.3°C 31.6°F-0.2°C 96% 2.3 mph SW3.7 kmh SW 2.3 mph3.7 kmh 29.66 in1004.4 mb - 0.00 in0.0 mm 0.01 in0.3 mm
08:00 AM 32.7°F0.4°C 31.9°F-0.1°C 97% 1.1 mph N1.8 kmh N 2.3 mph3.7 kmh 29.66 in1004.4 mb - 0.00 in0.0 mm 0.01 in0.3 mm
07:50 AM 32.7°F0.4°C 32.0°F0.0°C 97% 2.3 mph WSW3.7 kmh WSW 4.6 mph7.4 kmh 29.66 in1004.4 mb - 0.00 in0.0 mm 0.01 in0.3 mm
07:40 AM 32.8°F0.4°C 32.0°F0.0°C 97% 1.1 mph WSW1.8 kmh WSW 4.6 mph7.4 kmh 29.66 in1004.4 mb - 0.00 in0.0 mm 0.01 in0.3 mm
07:30 AM 32.8°F0.4°C 32.0°F0.0°C 97% Calm Calm 2.3 mph3.7 kmh 29.66 in1004.4 mb - 0.00 in0.0 mm 0.01 in0.3 mm
07:20 AM 32.8°F0.4°C 32.0°F0.0°C 97% 1.1 mph WSW1.8 kmh WSW 4.6 mph7.4 kmh 29.66 in1004.4 mb - 0.00 in0.0 mm 0.01 in0.3 mm
07:10 AM 32.9°F0.5°C 32.1°F0.1°C 97% 1.1 mph WSW1.8 kmh WSW 3.5 mph5.6 kmh 29.66 in1004.4 mb - 0.00 in0.0 mm 0.01 in0.3 mm
07:00 AM 32.9°F0.5°C 32.1°F0.1°C 97% 1.1 mph WSW1.8 kmh WSW 2.3 mph3.7 kmh 29.66 in1004.4 mb - 0.00 in0.0 mm 0.01 in0.3 mm
06:50 AM 32.9°F0.5°C 32.1°F0.1°C 97% 1.1 mph WSW1.8 kmh WSW 5.8 mph9.3 kmh 29.66 in1004.4 mb - 0.00 in0.0 mm 0.01 in0.3 mm
06:40 AM 33.0°F0.6°C 32.2°F0.1°C 97% 1.1 mph WSW1.8 kmh WSW 2.3 mph3.7 kmh 29.66 in1004.4 mb - 0.00 in0.0 mm 0.01 in0.3 mm
06:30 AM 33.1°F0.6°C 32.3°F0.2°C 97% 1.1 mph SSW1.8 kmh SSW 4.6 mph7.4 kmh 29.66 in1004.4 mb - 0.00 in0.0 mm 0.01 in0.3 mm
06:20 AM 33.1°F0.6°C 32.3°F0.2°C 97% 1.1 mph W1.8 kmh W 4.6 mph7.4 kmh 29.66 in1004.4 mb - 0.01 in0.3 mm 0.01 in0.3 mm
06:10 AM 33.2°F0.7°C 32.4°F0.2°C 97% 1.1 mph WSW1.8 kmh WSW 2.3 mph3.7 kmh 29.66 in1004.4 mb - 0.01 in0.3 mm 0.01 in0.3 mm
06:00 AM 33.2°F0.7°C 32.4°F0.2°C 97% Calm Calm 4.6 mph7.4 kmh 29.66 in1004.4 mb - 0.00 in0.0 mm 0.00 in0.0 mm
05:50 AM 33.2°F0.7°C 32.5°F0.3°C 97% 1.1 mph SW1.8 kmh SW 3.5 mph5.6 kmh 29.66 in1004.4 mb - 0.00 in0.0 mm 0.00 in0.0 mm
05:40 AM 33.3°F0.7°C 32.5°F0.3°C 97% 1.1 mph WSW1.8 kmh WSW 3.5 mph5.6 kmh 29.66 in1004.4 mb - 0.00 in0.0 mm 0.00 in0.0 mm
05:30 AM 33.3°F0.7°C 32.5°F0.3°C 97% Calm Calm -- 29.67 in1004.7 mb - 0.00 in0.0 mm 0.00 in0.0 mm
05:20 AM 33.3°F0.7°C 32.5°F0.3°C 97% 2.3 mph WSW3.7 kmh WSW 5.8 mph9.3 kmh 29.67 in1004.7 mb - 0.00 in0.0 mm 0.00 in0.0 mm
05:10 AM 33.4°F0.8°C 32.6°F0.3°C 97% 1.1 mph WSW1.8 kmh WSW 2.3 mph3.7 kmh 29.67 in1004.7 mb - 0.00 in0.0 mm 0.00 in0.0 mm
05:00 AM 33.4°F0.8°C 32.6°F0.3°C 97% 1.1 mph W1.8 kmh W 2.3 mph3.7 kmh 29.66 in1004.4 mb - 0.00 in0.0 mm 0.00 in0.0 mm
04:50 AM 33.4°F0.8°C 32.6°F0.3°C 97% 2.3 mph SW3.7 kmh SW 5.8 mph9.3 kmh 29.67 in1004.7 mb - 0.00 in0.0 mm 0.00 in0.0 mm
04:40 AM 33.4°F0.8°C 32.6°F0.3°C 97% Calm Calm 1.1 mph1.8 kmh 29.67 in1004.7 mb - 0.00 in0.0 mm 0.00 in0.0 mm
04:30 AM 33.4°F0.8°C 32.6°F0.3°C 97% Calm Calm 1.1 mph1.8 kmh 29.67 in1004.7 mb - 0.00 in0.0 mm 0.00 in0.0 mm
04:20 AM 33.4°F0.8°C 32.6°F0.3°C 97% Calm Calm 1.1 mph1.8 kmh 29.67 in1004.7 mb - 0.00 in0.0 mm 0.00 in0.0 mm
04:10 AM 33.4°F0.8°C 32.6°F0.3°C 97% 1.1 mph SW1.8 kmh SW 1.1 mph1.8 kmh 29.68 in1005.1 mb - 0.00 in0.0 mm 0.00 in0.0 mm
04:00 AM 33.4°F0.8°C 32.6°F0.3°C 97% 1.1 mph WSW1.8 kmh WSW 2.3 mph3.7 kmh 29.68 in1005.1 mb - 0.00 in0.0 mm 0.00 in0.0 mm
03:50 AM 33.4°F0.8°C 32.6°F0.3°C 97% Calm Calm -- 29.68 in1005.1 mb - 0.00 in0.0 mm 0.00 in0.0 mm
03:40 AM 33.4°F0.8°C 32.6°F0.3°C 97% Calm Calm 2.3 mph3.7 kmh 29.68 in1005.1 mb - 0.00 in0.0 mm 0.00 in0.0 mm
03:30 AM 33.4°F0.8°C 32.6°F0.3°C 97% Calm Calm 1.1 mph1.8 kmh 29.68 in1005.1 mb - 0.00 in0.0 mm 0.00 in0.0 mm
03:20 AM 33.4°F0.8°C 32.6°F0.3°C 97% Calm Calm -- 29.68 in1005.1 mb - 0.00 in0.0 mm 0.00 in0.0 mm
03:10 AM 33.5°F0.8°C 32.7°F0.4°C 97% Calm Calm -- 29.68 in1005.1 mb - 0.00 in0.0 mm 0.00 in0.0 mm
03:00 AM 33.4°F0.8°C 32.7°F0.4°C 97% Calm Calm 3.5 mph5.6 kmh 29.68 in1005.1 mb - 0.00 in0.0 mm 0.00 in0.0 mm
02:50 AM 33.4°F0.8°C 32.6°F0.3°C 97% Calm Calm 1.1 mph1.8 kmh 29.68 in1005.1 mb - 0.00 in0.0 mm 0.00 in0.0 mm
02:40 AM 33.4°F0.8°C 32.6°F0.3°C 97% 1.1 mph SSW1.8 kmh SSW 1.1 mph1.8 kmh 29.68 in1005.1 mb - 0.00 in0.0 mm 0.00 in0.0 mm
02:30 AM 33.4°F0.8°C 32.6°F0.3°C 97% Calm Calm -- 29.68 in1005.1 mb - 0.00 in0.0 mm 0.00 in0.0 mm
02:20 AM 33.4°F0.8°C 32.6°F0.3°C 97% Calm Calm 1.1 mph1.8 kmh 29.68 in1005.1 mb - 0.00 in0.0 mm 0.00 in0.0 mm
02:10 AM 33.4°F0.8°C 32.6°F0.3°C 97% Calm Calm 2.3 mph3.7 kmh 29.68 in1005.1 mb - 0.00 in0.0 mm 0.00 in0.0 mm
02:00 AM 33.4°F0.8°C 32.6°F0.3°C 97% Calm Calm 1.1 mph1.8 kmh 29.68 in1005.1 mb - 0.00 in0.0 mm 0.00 in0.0 mm
01:50 AM 33.4°F0.8°C 32.6°F0.3°C 97% 1.1 mph WSW1.8 kmh WSW 3.5 mph5.6 kmh 29.68 in1005.1 mb - 0.00 in0.0 mm 0.00 in0.0 mm
01:40 AM 33.4°F0.8°C 32.6°F0.3°C 97% Calm Calm 1.1 mph1.8 kmh 29.68 in1005.1 mb - 0.00 in0.0 mm 0.00 in0.0 mm
01:30 AM 33.4°F0.8°C 32.6°F0.3°C 97% Calm Calm 2.3 mph3.7 kmh 29.68 in1005.1 mb - 0.00 in0.0 mm 0.00 in0.0 mm
01:20 AM 33.5°F0.8°C 32.7°F0.4°C 97% 1.1 mph SW1.8 kmh SW 3.5 mph5.6 kmh 29.68 in1005.1 mb - 0.00 in0.0 mm 0.00 in0.0 mm
01:10 AM 33.5°F0.8°C 32.7°F0.4°C 97% Calm Calm -- 29.69 in1005.4 mb - 0.00 in0.0 mm 0.00 in0.0 mm
01:00 AM 33.6°F0.9°C 32.8°F0.4°C 97% 1.1 mph SW1.8 kmh SW 6.9 mph11.1 kmh 29.69 in1005.4 mb - 0.00 in0.0 mm 0.00 in0.0 mm
12:50 AM 33.6°F0.9°C 32.8°F0.4°C 97% Calm Calm -- 29.69 in1005.4 mb - 0.00 in0.0 mm 0.00 in0.0 mm
12:40 AM 33.6°F0.9°C 32.8°F0.4°C 97% 1.1 mph SW1.8 kmh SW 1.1 mph1.8 kmh 29.68 in1005.1 mb - 0.00 in0.0 mm 0.00 in0.0 mm
12:30 AM 33.6°F0.9°C 32.8°F0.4°C 97% 1.1 mph SW1.8 kmh SW 4.6 mph7.4 kmh 29.69 in1005.4 mb - 0.00 in0.0 mm 0.00 in0.0 mm
12:20 AM 33.6°F0.9°C 32.8°F0.4°C 97% Calm Calm 1.1 mph1.8 kmh 29.69 in1005.4 mb - 0.00 in0.0 mm 0.00 in0.0 mm
12:10 AM 33.6°F0.9°C 32.8°F0.4°C 97% Calm Calm 2.3 mph3.7 kmh 29.69 in1005.4 mb - 0.00 in0.0 mm 0.00 in0.0 mm
12:00 AM 33.7°F0.9°C 32.9°F0.5°C 97% Calm Calm 1.1 mph1.8 kmh 29.69 in1005.4 mb - 0.00 in0.0 mm 0.00 in0.0 mm